createdAt,value
2024-02-03T00:00:43.977Z,9.06
2024-02-03T00:01:43.995Z,9.09
2024-02-03T00:02:43.936Z,9.06
2024-02-03T00:03:43.646Z,9.05
2024-02-03T00:04:43.830Z,9.04
2024-02-03T00:05:43.563Z,9.05
2024-02-03T00:06:43.861Z,9.04
2024-02-03T00:07:43.541Z,9.04
2024-02-03T00:08:43.514Z,9.04
2024-02-03T00:09:43.663Z,9.05
2024-02-03T00:10:43.826Z,9.04
2024-02-03T00:11:43.676Z,9.05
2024-02-03T00:12:43.568Z,9.04
2024-02-03T00:13:43.549Z,9.06
2024-02-03T00:14:43.654Z,9.06
2024-02-03T00:15:43.722Z,9.06
2024-02-03T00:16:43.700Z,9.06
2024-02-03T00:17:43.527Z,9.05
2024-02-03T00:18:43.909Z,9.04
2024-02-03T00:19:43.621Z,9.04
2024-02-03T00:20:43.602Z,9.05
2024-02-03T00:21:43.477Z,9.05
2024-02-03T00:22:43.550Z,9.04
2024-02-03T00:23:43.314Z,9.06
2024-02-03T00:24:43.455Z,9.05
2024-02-03T00:25:43.334Z,9.04
2024-02-03T00:26:43.518Z,9.05
2024-02-03T00:27:43.552Z,9.02
2024-02-03T00:28:43.314Z,9.05
2024-02-03T00:29:43.354Z,9.05
2024-02-03T00:30:43.422Z,9.06
2024-02-03T00:31:43.781Z,9.09
2024-02-03T00:32:43.369Z,9.05
2024-02-03T00:33:43.867Z,9.05
2024-02-03T00:34:43.450Z,9.04
2024-02-03T00:35:43.281Z,9.06
2024-02-03T00:36:43.342Z,9.06
2024-02-03T00:37:43.234Z,9.06
2024-02-03T00:38:43.229Z,9.06
2024-02-03T00:39:43.330Z,9.05
2024-02-03T00:40:43.342Z,9.05
2024-02-03T00:41:43.257Z,9.05
2024-02-03T00:42:43.201Z,9.02
2024-02-03T00:43:43.159Z,9.02
2024-02-03T00:44:43.137Z,9.04
2024-02-03T00:45:43.271Z,9.05
2024-02-03T00:46:43.133Z,9.06
2024-02-03T00:47:43.199Z,9.06
2024-02-03T00:48:43.674Z,9.05
2024-02-03T00:49:44.300Z,9.05
2024-02-03T00:50:43.310Z,9.05
2024-02-03T00:51:43.203Z,9.05
2024-02-03T00:52:43.373Z,9.06
2024-02-03T00:53:43.240Z,9.06
2024-02-03T00:54:43.182Z,9.05
2024-02-03T00:55:43.060Z,9.09
2024-02-03T00:56:43.043Z,9.06
2024-02-03T00:57:43.295Z,9.09
2024-02-03T00:58:42.988Z,9.09
2024-02-03T00:59:43.044Z,9.09
2024-02-03T01:00:43.125Z,9.09
2024-02-03T01:01:43.248Z,9.09
2024-02-03T01:02:43.025Z,9.10
2024-02-03T01:03:43.085Z,9.10
2024-02-03T01:04:43.014Z,9.12
2024-02-03T01:05:42.976Z,9.12
2024-02-03T01:06:43.058Z,9.13
2024-02-03T01:07:42.942Z,9.12
2024-02-03T01:08:42.903Z,9.13
2024-02-03T01:09:43.429Z,9.12
2024-02-03T01:10:43.031Z,9.12
2024-02-03T01:11:42.948Z,9.12
2024-02-03T01:12:43.012Z,9.13
2024-02-03T01:13:43.389Z,9.13
2024-02-03T01:14:43.053Z,9.15
2024-02-03T01:15:43.076Z,9.15
2024-02-03T01:16:42.818Z,9.13
2024-02-03T01:17:42.844Z,9.15
2024-02-03T01:18:42.893Z,9.15
2024-02-03T01:19:43.269Z,9.15
2024-02-03T01:20:42.777Z,9.16
2024-02-03T01:21:43.394Z,9.13
2024-02-03T01:22:42.816Z,9.16
2024-02-03T01:23:43.007Z,9.15
2024-02-03T01:24:42.823Z,9.16
2024-02-03T01:25:42.740Z,9.18
2024-02-03T01:26:42.727Z,9.18
2024-02-03T01:27:42.744Z,9.18
2024-02-03T01:28:42.748Z,9.18
2024-02-03T01:29:42.894Z,9.18
2024-02-03T01:30:42.997Z,9.16
2024-02-03T01:31:42.871Z,9.16
2024-02-03T01:32:42.857Z,9.15
2024-02-03T01:33:42.996Z,9.16
2024-02-03T01:34:42.892Z,9.18
2024-02-03T01:35:42.761Z,9.18
2024-02-03T01:36:42.746Z,9.16
2024-02-03T01:37:42.736Z,9.16
2024-02-03T01:38:42.657Z,9.18
2024-02-03T01:39:42.758Z,9.20
2024-02-03T01:40:42.576Z,9.20
2024-02-03T01:41:42.693Z,9.21
2024-02-03T01:42:42.695Z,9.21
2024-02-03T01:43:42.659Z,9.20
2024-02-03T01:44:42.545Z,9.21
2024-02-03T01:45:42.664Z,9.21
2024-02-03T01:46:42.531Z,9.23
2024-02-03T01:47:42.808Z,9.24
2024-02-03T01:48:42.599Z,9.24
2024-02-03T01:49:42.801Z,9.23
2024-02-03T01:50:42.498Z,9.23
2024-02-03T01:51:42.560Z,9.23
2024-02-03T01:52:42.505Z,9.25
2024-02-03T01:53:43.058Z,9.24
2024-02-03T01:54:42.520Z,9.25
2024-02-03T01:55:42.439Z,9.24
2024-02-03T01:56:42.638Z,9.24
2024-02-03T01:57:42.637Z,9.25
2024-02-03T01:58:42.415Z,9.24
2024-02-03T01:59:42.464Z,9.25
2024-02-03T02:00:42.596Z,9.24
2024-02-03T02:01:42.452Z,9.24
2024-02-03T02:02:42.393Z,9.24
2024-02-03T02:03:42.734Z,9.25
2024-02-03T02:04:42.615Z,9.25
2024-02-03T02:05:42.515Z,9.24
2024-02-03T02:06:42.507Z,9.24
2024-02-03T02:07:42.367Z,9.27
2024-02-03T02:08:42.360Z,9.27
2024-02-03T02:09:42.630Z,9.27
2024-02-03T02:10:42.294Z,9.28
2024-02-03T02:11:42.294Z,9.30
2024-02-03T02:12:42.367Z,9.30
2024-02-03T02:13:42.473Z,9.31
2024-02-03T02:14:42.393Z,9.31
2024-02-03T02:15:42.308Z,9.32
2024-02-03T02:16:42.263Z,9.31
2024-02-03T02:17:42.440Z,9.32
2024-02-03T02:18:42.562Z,9.30
2024-02-03T02:19:42.356Z,9.30
2024-02-03T02:20:42.283Z,9.32
2024-02-03T02:21:42.400Z,9.31
2024-02-03T02:22:42.286Z,9.32
2024-02-03T02:23:42.146Z,9.32
2024-02-03T02:24:42.196Z,9.32
2024-02-03T02:25:42.365Z,9.32
2024-02-03T02:26:42.128Z,9.32
2024-02-03T02:27:42.357Z,9.31
2024-02-03T02:28:42.144Z,9.32
2024-02-03T02:29:42.164Z,9.32
2024-02-03T02:30:42.135Z,9.34
2024-02-03T02:31:42.080Z,9.34
2024-02-03T02:32:42.447Z,9.35
2024-02-03T02:33:42.366Z,9.35
2024-02-03T02:34:42.300Z,9.35
2024-02-03T02:35:42.040Z,9.35
2024-02-03T02:36:42.281Z,9.34
2024-02-03T02:37:42.030Z,9.35
2024-02-03T02:38:42.049Z,9.38
2024-02-03T02:39:42.454Z,9.38
2024-02-03T02:40:42.056Z,9.38
2024-02-03T02:41:42.106Z,9.38
2024-02-03T02:42:42.097Z,9.39
2024-02-03T02:43:42.146Z,9.39
2024-02-03T02:44:41.945Z,9.39
2024-02-03T02:45:42.070Z,9.39
2024-02-03T02:46:42.156Z,9.40
2024-02-03T02:47:41.952Z,9.40
2024-02-03T02:48:42.153Z,9.42
2024-02-03T02:49:42.140Z,9.40
2024-02-03T02:50:41.975Z,9.43
2024-02-03T02:51:42.021Z,9.39
2024-02-03T02:52:42.037Z,9.40
2024-02-03T02:53:41.872Z,9.42
2024-02-03T02:54:42.070Z,9.40
2024-02-03T02:55:41.887Z,9.42
2024-02-03T02:56:41.879Z,9.39
2024-02-03T02:57:41.984Z,9.40
2024-02-03T02:58:41.815Z,9.40
2024-02-03T02:59:41.799Z,9.42
2024-02-03T03:00:41.931Z,9.42
2024-02-03T03:01:41.869Z,9.42
2024-02-03T03:02:41.782Z,9.42
2024-02-03T03:03:41.919Z,9.43
2024-02-03T03:04:41.899Z,9.45
2024-02-03T03:05:41.762Z,9.45
2024-02-03T03:06:42.109Z,9.42
2024-02-03T03:07:41.785Z,9.43
2024-02-03T03:08:41.814Z,9.45
2024-02-03T03:09:41.737Z,9.45
2024-02-03T03:10:41.701Z,9.43
2024-02-03T03:11:41.727Z,9.45
2024-02-03T03:12:41.755Z,9.46
2024-02-03T03:13:41.753Z,9.45
2024-02-03T03:14:41.665Z,9.48
2024-02-03T03:15:41.801Z,9.46
2024-02-03T03:16:41.679Z,9.46
2024-02-03T03:17:41.683Z,9.46
2024-02-03T03:18:41.975Z,9.46
2024-02-03T03:19:41.884Z,9.46
2024-02-03T03:20:41.745Z,9.46
2024-02-03T03:21:41.727Z,9.46
2024-02-03T03:22:41.714Z,9.46
2024-02-03T03:23:41.989Z,9.45
2024-02-03T03:24:41.630Z,9.45
2024-02-03T03:25:41.529Z,9.45
2024-02-03T03:26:41.852Z,9.43
2024-02-03T03:27:41.719Z,9.43
2024-02-03T03:28:41.697Z,9.46
2024-02-03T03:29:41.670Z,9.45
2024-02-03T03:30:41.750Z,9.45
2024-02-03T03:31:41.478Z,9.46
2024-02-03T03:32:41.495Z,9.48
2024-02-03T03:33:41.628Z,9.48
2024-02-03T03:34:41.595Z,9.48
2024-02-03T03:35:41.640Z,9.49
2024-02-03T03:36:41.516Z,9.48
2024-02-03T03:37:41.578Z,9.48
2024-02-03T03:38:41.420Z,9.49
2024-02-03T03:39:41.531Z,9.49
2024-02-03T03:40:41.452Z,9.48
2024-02-03T03:41:41.445Z,9.48
2024-02-03T03:42:41.522Z,9.49
2024-02-03T03:43:41.354Z,9.49
2024-02-03T03:44:41.391Z,9.52
2024-02-03T03:45:41.835Z,9.53
2024-02-03T03:46:41.367Z,9.50
2024-02-03T03:47:41.505Z,9.53
2024-02-03T03:48:41.601Z,9.53
2024-02-03T03:49:41.614Z,9.53
2024-02-03T03:50:41.264Z,9.53
2024-02-03T03:51:41.418Z,9.53
2024-02-03T03:52:41.260Z,9.52
2024-02-03T03:53:41.439Z,9.53
2024-02-03T03:54:42.166Z,9.53
2024-02-03T03:55:41.229Z,9.56
2024-02-03T03:56:41.451Z,9.56
2024-02-03T03:57:41.709Z,9.53
2024-02-03T03:58:41.283Z,9.56
2024-02-03T03:59:41.228Z,9.53
2024-02-03T04:00:41.285Z,9.56
2024-02-03T04:01:41.312Z,9.53
2024-02-03T04:02:41.220Z,9.52
2024-02-03T04:03:41.292Z,9.52
2024-02-03T04:04:41.197Z,9.52
2024-02-03T04:05:41.234Z,9.52
2024-02-03T04:06:41.422Z,9.52
2024-02-03T04:07:41.300Z,9.52
2024-02-03T04:08:41.139Z,9.50
2024-02-03T04:09:41.138Z,9.50
2024-02-03T04:10:41.102Z,9.49
2024-02-03T04:11:41.120Z,9.48
2024-02-03T04:12:41.393Z,9.46
2024-02-03T04:13:41.187Z,9.48
2024-02-03T04:14:41.481Z,9.46
2024-02-03T04:15:41.167Z,9.46
2024-02-03T04:16:41.019Z,9.46
2024-02-03T04:17:41.023Z,9.48
2024-02-03T04:18:41.499Z,9.48
2024-02-03T04:19:41.088Z,9.46
2024-02-03T04:20:41.199Z,9.45
2024-02-03T04:21:41.081Z,9.45
2024-02-03T04:22:40.964Z,9.45
2024-02-03T04:23:41.097Z,9.45
2024-02-03T04:24:41.013Z,9.45
2024-02-03T04:25:41.334Z,9.43
2024-02-03T04:26:40.940Z,9.43
2024-02-03T04:27:40.979Z,9.45
2024-02-03T04:28:40.921Z,9.43
2024-02-03T04:29:40.984Z,9.45
2024-02-03T04:30:41.605Z,9.43
2024-02-03T04:31:40.911Z,9.45
2024-02-03T04:32:41.034Z,9.43
2024-02-03T04:33:41.042Z,9.42
2024-02-03T04:34:40.990Z,9.42
2024-02-03T04:35:41.155Z,9.42
2024-02-03T04:36:40.927Z,9.42
2024-02-03T04:37:40.995Z,9.43
2024-02-03T04:38:40.837Z,9.45
2024-02-03T04:39:40.983Z,9.45
2024-02-03T04:40:40.875Z,9.45
2024-02-03T04:41:40.932Z,9.45
2024-02-03T04:42:41.047Z,9.43
2024-02-03T04:43:40.861Z,9.43
2024-02-03T04:44:41.144Z,9.43
2024-02-03T04:45:41.020Z,9.42
2024-02-03T04:46:40.776Z,9.43
2024-02-03T04:47:40.904Z,9.45
2024-02-03T04:48:40.819Z,9.45
2024-02-03T04:49:40.782Z,9.45
2024-02-03T04:50:40.664Z,9.45
2024-02-03T04:51:40.735Z,9.48
2024-02-03T04:52:40.676Z,9.46
2024-02-03T04:53:40.672Z,9.48
2024-02-03T04:54:40.732Z,9.48
2024-02-03T04:55:40.635Z,9.49
2024-02-03T04:56:40.621Z,9.48
2024-02-03T04:57:40.702Z,9.49
2024-02-03T04:58:40.632Z,9.49
2024-02-03T04:59:40.863Z,9.50
2024-02-03T05:00:40.763Z,9.49
2024-02-03T05:01:40.786Z,9.50
2024-02-03T05:02:40.708Z,9.50
2024-02-03T05:03:40.907Z,9.53
2024-02-03T05:04:40.826Z,9.56
2024-02-03T05:05:40.764Z,9.56
2024-02-03T05:06:40.765Z,9.56
2024-02-03T05:07:40.514Z,9.56
2024-02-03T05:08:40.531Z,9.57
2024-02-03T05:09:40.702Z,9.57
2024-02-03T05:10:40.832Z,9.57
2024-02-03T05:11:40.502Z,9.56
2024-02-03T05:12:40.637Z,9.56
2024-02-03T05:13:40.613Z,9.56
2024-02-03T05:14:40.626Z,9.56
2024-02-03T05:15:40.589Z,9.56
2024-02-03T05:16:40.491Z,9.53
2024-02-03T05:17:40.765Z,9.56
2024-02-03T05:18:40.570Z,9.53
2024-02-03T05:19:40.688Z,9.57
2024-02-03T05:20:40.432Z,9.53
2024-02-03T05:21:40.871Z,9.53
2024-02-03T05:22:40.507Z,9.56
2024-02-03T05:23:40.376Z,9.53
2024-02-03T05:24:40.404Z,9.56
2024-02-03T05:25:40.377Z,9.56
2024-02-03T05:26:40.381Z,9.56
2024-02-03T05:27:40.463Z,9.56
2024-02-03T05:28:40.320Z,9.56
2024-02-03T05:29:40.499Z,9.57
2024-02-03T05:30:40.922Z,9.56
2024-02-03T05:31:40.317Z,9.56
2024-02-03T05:32:40.499Z,9.56
2024-02-03T05:33:40.615Z,9.53
2024-02-03T05:34:40.726Z,9.52
2024-02-03T05:35:40.236Z,9.53
2024-02-03T05:36:40.398Z,9.50
2024-02-03T05:37:40.236Z,9.52
2024-02-03T05:38:40.333Z,9.50
2024-02-03T05:39:40.299Z,9.49
2024-02-03T05:40:40.614Z,9.49
2024-02-03T05:41:40.162Z,9.48
2024-02-03T05:42:40.371Z,9.48
2024-02-03T05:43:40.173Z,9.48
2024-02-03T05:44:40.197Z,9.49
2024-02-03T05:45:40.237Z,9.49
2024-02-03T05:46:40.172Z,9.49
2024-02-03T05:47:40.171Z,9.48
2024-02-03T05:48:40.308Z,9.48
2024-02-03T05:49:40.185Z,9.48
2024-02-03T05:50:40.158Z,9.48
2024-02-03T05:51:40.156Z,9.48
2024-02-03T05:52:40.530Z,9.48
2024-02-03T05:53:40.115Z,9.46
2024-02-03T05:54:40.204Z,9.46
2024-02-03T05:55:40.283Z,9.45
2024-02-03T05:56:40.184Z,9.43
2024-02-03T05:57:40.439Z,9.43
2024-02-03T05:58:40.297Z,9.43
2024-02-03T05:59:46.091Z,9.45
2024-02-03T06:00:40.156Z,9.45
2024-02-03T06:01:40.054Z,9.43
2024-02-03T06:02:40.048Z,9.45
2024-02-03T06:03:40.091Z,9.45
2024-02-03T06:04:40.283Z,9.43
2024-02-03T06:05:53.201Z,9.43
2024-02-03T06:06:40.031Z,9.43
2024-02-03T06:07:40.188Z,9.42
2024-02-03T06:08:40.261Z,9.42
2024-02-03T06:09:40.199Z,9.42
2024-02-03T06:10:40.023Z,9.43
2024-02-03T06:11:40.039Z,9.39
2024-02-03T06:12:40.092Z,9.40
2024-02-03T06:13:40.117Z,9.40
2024-02-03T06:14:40.176Z,9.40
2024-02-03T06:15:40.107Z,9.39
2024-02-03T06:16:40.035Z,9.42
2024-02-03T06:17:39.994Z,9.42
2024-02-03T06:18:39.927Z,9.42
2024-02-03T06:19:43.366Z,9.40
2024-02-03T06:20:40.000Z,9.40
2024-02-03T06:21:39.922Z,9.40
2024-02-03T06:22:39.807Z,9.40
2024-02-03T06:23:39.973Z,9.42
2024-02-03T06:24:40.009Z,9.42
2024-02-03T06:25:41.722Z,9.40
2024-02-03T06:26:39.841Z,9.42
2024-02-03T06:27:39.962Z,9.42
2024-02-03T06:28:39.852Z,9.42
2024-02-03T06:29:39.897Z,9.40
2024-02-03T06:30:39.975Z,9.42
2024-02-03T06:31:39.659Z,9.42
2024-02-03T06:32:39.756Z,9.42
2024-02-03T06:33:40.012Z,9.42
2024-02-03T06:34:39.869Z,9.42
2024-02-03T06:35:42.123Z,9.40
2024-02-03T06:36:39.683Z,9.42
2024-02-03T06:37:39.695Z,9.42
2024-02-03T06:38:39.960Z,9.40
2024-02-03T06:39:39.676Z,9.40
2024-02-03T06:40:39.612Z,9.42
2024-02-03T06:41:39.620Z,9.40
2024-02-03T06:42:40.176Z,9.39
2024-02-03T06:43:39.581Z,9.39
2024-02-03T06:44:39.565Z,9.40
2024-02-03T06:45:39.707Z,9.40
2024-02-03T06:46:39.563Z,9.40
2024-02-03T06:47:39.597Z,9.43
2024-02-03T06:48:39.685Z,9.43
2024-02-03T06:49:39.699Z,9.43
2024-02-03T06:50:40.016Z,9.43
2024-02-03T06:51:39.641Z,9.46
2024-02-03T06:52:39.556Z,9.45
2024-02-03T06:53:39.604Z,9.45
2024-02-03T06:54:39.710Z,9.45
2024-02-03T06:55:39.484Z,9.45
2024-02-03T06:56:39.465Z,9.45
2024-02-03T06:57:39.578Z,9.43
2024-02-03T06:58:39.395Z,9.45
2024-02-03T06:59:39.418Z,9.46
2024-02-03T07:00:39.434Z,9.46
2024-02-03T07:01:39.546Z,9.46
2024-02-03T07:02:39.569Z,9.45
2024-02-03T07:03:39.548Z,9.46
2024-02-03T07:04:39.390Z,9.43
2024-02-03T07:05:39.520Z,9.46
2024-02-03T07:06:39.354Z,9.45
2024-02-03T07:07:39.299Z,9.43
2024-02-03T07:08:39.503Z,9.46
2024-02-03T07:09:39.499Z,9.45
2024-02-03T07:10:39.532Z,9.45
2024-02-03T07:11:42.566Z,9.49
2024-02-03T07:12:39.626Z,9.46
2024-02-03T07:13:39.458Z,9.46
2024-02-03T07:14:39.520Z,9.48
2024-02-03T07:15:39.330Z,9.48
2024-02-03T07:16:39.243Z,9.48
2024-02-03T07:17:39.261Z,9.48
2024-02-03T07:18:39.379Z,9.46
2024-02-03T07:19:39.325Z,9.48
2024-02-03T07:20:39.219Z,9.46
2024-02-03T07:21:39.361Z,9.48
2024-02-03T07:22:39.191Z,9.48
2024-02-03T07:23:39.160Z,9.48
2024-02-03T07:24:39.221Z,9.48
2024-02-03T07:25:39.179Z,9.49
2024-02-03T07:26:39.167Z,9.49
2024-02-03T07:27:39.254Z,9.49
2024-02-03T07:28:39.140Z,9.49
2024-02-03T07:29:39.129Z,9.49
2024-02-03T07:30:39.237Z,9.48
2024-02-03T07:31:39.237Z,9.49
2024-02-03T07:32:39.120Z,9.50
2024-02-03T07:33:39.265Z,9.49
2024-02-03T07:34:39.359Z,9.49
2024-02-03T07:35:39.293Z,9.49
2024-02-03T07:36:39.249Z,9.50
2024-02-03T07:37:39.264Z,9.50
2024-02-03T07:38:39.124Z,9.49
2024-02-03T07:39:39.519Z,9.48
2024-02-03T07:40:39.340Z,9.50
2024-02-03T07:41:39.000Z,9.50
2024-02-03T07:42:39.078Z,9.50
2024-02-03T07:43:38.963Z,9.50
2024-02-03T07:44:39.123Z,9.50
2024-02-03T07:45:39.035Z,9.52
2024-02-03T07:46:38.997Z,9.52
2024-02-03T07:47:38.966Z,9.50
2024-02-03T07:48:39.362Z,9.52
2024-02-03T07:49:38.996Z,9.50
2024-02-03T07:50:38.900Z,9.50
2024-02-03T07:51:39.142Z,9.49
2024-02-03T07:52:38.876Z,9.49
2024-02-03T07:53:38.902Z,9.52
2024-02-03T07:54:38.926Z,9.50
2024-02-03T07:55:38.864Z,9.49
2024-02-03T07:56:38.928Z,9.50
2024-02-03T07:57:38.948Z,9.52
2024-02-03T07:58:38.933Z,9.50
2024-02-03T07:59:38.891Z,9.50
2024-02-03T08:00:39.056Z,9.50
2024-02-03T08:01:38.835Z,9.52
2024-02-03T08:02:38.883Z,9.52
2024-02-03T08:03:38.919Z,9.56
2024-02-03T08:04:38.967Z,9.56
2024-02-03T08:05:38.884Z,9.57
2024-02-03T08:06:38.868Z,9.58
2024-02-03T08:07:38.831Z,9.57
2024-02-03T08:08:38.798Z,9.57
2024-02-03T08:09:38.987Z,9.58
2024-02-03T08:10:38.772Z,9.60
2024-02-03T08:11:38.850Z,9.61
2024-02-03T08:12:38.903Z,9.63
2024-02-03T08:13:38.869Z,9.66
2024-02-03T08:14:39.061Z,9.64
2024-02-03T08:15:38.742Z,9.66
2024-02-03T08:16:38.665Z,9.67
2024-02-03T08:17:38.873Z,9.66
2024-02-03T08:18:38.675Z,9.66
2024-02-03T08:19:38.735Z,9.66
2024-02-03T08:20:38.764Z,9.67
2024-02-03T08:21:38.802Z,9.67
2024-02-03T08:22:38.595Z,9.67
2024-02-03T08:23:38.722Z,9.68
2024-02-03T08:24:38.664Z,9.68
2024-02-03T08:25:38.556Z,9.68
2024-02-03T08:26:40.311Z,9.67
2024-02-03T08:27:39.295Z,9.67
2024-02-03T08:28:38.720Z,9.70
2024-02-03T08:29:38.676Z,9.68
2024-02-03T08:30:38.843Z,9.68
2024-02-03T08:31:38.543Z,9.70
2024-02-03T08:32:38.736Z,9.70
2024-02-03T08:33:38.734Z,9.68
2024-02-03T08:34:38.622Z,9.70
2024-02-03T08:35:38.551Z,9.70
2024-02-03T08:36:38.493Z,9.70
2024-02-03T08:37:38.645Z,9.71
2024-02-03T08:38:38.421Z,9.71
2024-02-03T08:40:38.466Z,9.73
2024-02-03T08:41:38.433Z,9.75
2024-02-03T08:42:38.564Z,9.73
2024-02-03T08:43:38.356Z,9.76
2024-02-03T08:44:38.501Z,9.76
2024-02-03T08:45:38.572Z,9.78
2024-02-03T08:46:38.360Z,9.78
2024-02-03T08:47:38.390Z,9.78
2024-02-03T08:48:38.473Z,9.76
2024-02-03T08:49:38.568Z,9.78
2024-02-03T08:50:38.316Z,9.79
2024-02-03T08:51:41.548Z,9.79
2024-02-03T08:52:38.581Z,9.81
2024-02-03T08:53:38.288Z,9.79
2024-02-03T08:54:38.322Z,9.81
2024-02-03T08:55:38.584Z,9.82
2024-02-03T08:56:38.461Z,9.82
2024-02-03T08:57:38.365Z,9.82
2024-02-03T08:58:38.342Z,9.86
2024-02-03T08:59:38.275Z,9.86
2024-02-03T09:00:38.499Z,9.88
2024-02-03T09:01:38.421Z,9.91
2024-02-03T09:02:38.228Z,9.91
2024-02-03T09:03:38.449Z,9.96
2024-02-03T09:04:38.356Z,9.96
2024-02-03T09:05:38.303Z,9.97
2024-02-03T09:06:38.385Z,9.99
2024-02-03T09:07:38.207Z,10.00
2024-02-03T09:08:38.133Z,10.01
2024-02-03T09:09:38.237Z,10.01
2024-02-03T09:10:38.172Z,10.04
2024-02-03T09:11:38.158Z,10.06
2024-02-03T09:12:38.197Z,10.04
2024-02-03T09:13:38.086Z,10.07
2024-02-03T09:14:38.274Z,10.07
2024-02-03T09:15:38.335Z,10.07
2024-02-03T09:16:38.099Z,10.07
2024-02-03T09:17:38.076Z,10.07
2024-02-03T09:18:38.337Z,10.09
2024-02-03T09:19:38.342Z,10.09
2024-02-03T09:20:38.018Z,10.09
2024-02-03T09:21:38.137Z,10.07
2024-02-03T09:22:37.998Z,10.07
2024-02-03T09:23:38.093Z,10.09
2024-02-03T09:24:38.360Z,10.07
2024-02-03T09:25:39.772Z,10.09
2024-02-03T09:26:38.099Z,10.09
2024-02-03T09:27:38.404Z,10.10
2024-02-03T09:28:38.075Z,10.10
2024-02-03T09:29:38.052Z,10.14
2024-02-03T09:30:37.993Z,10.12
2024-02-03T09:31:38.075Z,10.14
2024-02-03T09:32:38.060Z,10.14
2024-02-03T09:33:38.271Z,10.15
2024-02-03T09:34:37.986Z,10.14
2024-02-03T09:35:37.920Z,10.14
2024-02-03T09:37:57.458Z,10.14
2024-02-03T09:38:37.874Z,10.17
2024-02-03T09:39:38.166Z,10.15
2024-02-03T09:40:37.927Z,10.15
2024-02-03T09:41:37.825Z,10.17
2024-02-03T09:42:37.870Z,10.17
2024-02-03T09:43:37.810Z,10.19
2024-02-03T09:44:37.785Z,10.19
2024-02-03T09:45:37.926Z,10.19
2024-02-03T09:46:37.752Z,10.19
2024-02-03T09:47:37.842Z,10.19
2024-02-03T09:48:38.154Z,10.18
2024-02-03T09:49:38.071Z,10.18
2024-02-03T09:50:37.849Z,10.17
2024-02-03T09:51:55.853Z,10.14
2024-02-03T09:52:44.431Z,10.12
2024-02-03T09:53:37.696Z,10.14
2024-02-03T09:54:38.005Z,10.12
2024-02-03T09:55:37.940Z,10.14
2024-02-03T09:56:37.796Z,10.12
2024-02-03T09:57:37.793Z,10.10
2024-02-03T09:58:39.377Z,10.10
2024-02-03T09:59:37.701Z,10.12
2024-02-03T10:00:37.667Z,10.12
2024-02-03T10:01:37.805Z,10.10
2024-02-03T10:02:37.701Z,10.10
2024-02-03T10:03:37.640Z,10.10
2024-02-03T10:04:37.695Z,10.10
2024-02-03T10:05:37.665Z,10.12
2024-02-03T10:06:37.846Z,10.12
2024-02-03T10:07:37.691Z,10.12
2024-02-03T10:08:37.658Z,10.14
2024-02-03T10:11:37.726Z,10.18
2024-02-03T10:12:37.544Z,10.19
2024-02-03T10:13:37.644Z,10.22
2024-02-03T10:14:37.621Z,10.22
2024-02-03T10:15:37.960Z,10.22
2024-02-03T10:16:37.484Z,10.25
2024-02-03T10:17:37.621Z,10.26
2024-02-03T10:18:37.606Z,10.30
2024-02-03T10:19:37.733Z,10.33
2024-02-03T10:20:37.495Z,10.34
2024-02-03T10:21:37.742Z,10.33
2024-02-03T10:22:37.724Z,10.34
2024-02-03T10:23:37.384Z,10.33
2024-02-03T10:24:37.505Z,10.32
2024-02-03T10:25:37.659Z,10.32
2024-02-03T10:26:37.569Z,10.32
2024-02-03T10:27:37.497Z,10.32
2024-02-03T10:28:37.703Z,10.32
2024-02-03T10:29:37.333Z,10.32
2024-02-03T10:30:37.635Z,10.30
2024-02-03T10:31:38.546Z,10.30
2024-02-03T10:32:37.560Z,10.32
2024-02-03T10:33:37.525Z,10.30
2024-02-03T10:34:37.566Z,10.30
2024-02-03T10:35:37.455Z,10.30
2024-02-03T10:36:38.534Z,10.30
2024-02-03T10:37:37.385Z,10.30
2024-02-03T10:38:37.258Z,10.30
2024-02-03T10:39:37.404Z,10.28
2024-02-03T10:40:37.433Z,10.30
2024-02-03T10:41:37.349Z,10.30
2024-02-03T10:42:37.350Z,10.30
2024-02-03T10:43:37.327Z,10.32
2024-02-03T10:44:37.219Z,10.32
2024-02-03T10:45:37.238Z,10.33
2024-02-03T10:46:37.267Z,10.32
2024-02-03T10:47:37.343Z,10.32
2024-02-03T10:48:37.500Z,10.33
2024-02-03T10:49:37.308Z,10.32
2024-02-03T10:50:37.243Z,10.33
2024-02-03T10:51:37.168Z,10.33
2024-02-03T10:52:37.120Z,10.33
2024-02-03T10:53:37.282Z,10.33
2024-02-03T10:54:37.176Z,10.33
2024-02-03T10:55:37.190Z,10.33
2024-02-03T10:56:37.255Z,10.32
2024-02-03T10:57:37.285Z,10.33
2024-02-03T10:58:37.225Z,10.32
2024-02-03T10:59:37.340Z,10.32
2024-02-03T11:00:37.165Z,10.30
2024-02-03T11:01:37.028Z,10.32
2024-02-03T11:02:37.022Z,10.32
2024-02-03T11:03:37.090Z,10.30
2024-02-03T11:04:37.133Z,10.30
2024-02-03T11:05:37.219Z,10.30
2024-02-03T11:06:37.218Z,10.28
2024-02-03T11:07:37.169Z,10.32
2024-02-03T11:08:37.033Z,10.32
2024-02-03T11:09:37.102Z,10.32
2024-02-03T11:10:36.956Z,10.32
2024-02-03T11:11:37.131Z,10.33
2024-02-03T11:12:37.304Z,10.34
2024-02-03T11:13:37.002Z,10.33
2024-02-03T11:14:36.881Z,10.32
2024-02-03T11:15:36.950Z,10.34
2024-02-03T11:16:36.895Z,10.36
2024-02-03T11:17:37.262Z,10.39
2024-02-03T11:18:36.968Z,10.37
2024-02-03T11:19:36.945Z,10.37
2024-02-03T11:20:36.827Z,10.39
2024-02-03T11:21:37.076Z,10.39
2024-02-03T11:22:36.901Z,10.40
2024-02-03T11:23:36.792Z,10.42
2024-02-03T11:24:37.016Z,10.40
2024-02-03T11:25:36.754Z,10.40
2024-02-03T11:26:36.757Z,10.42
2024-02-03T11:27:37.079Z,10.43
2024-02-03T11:28:37.252Z,10.43
2024-02-03T11:29:36.716Z,10.42
2024-02-03T11:30:36.887Z,10.43
2024-02-03T11:31:36.698Z,10.42
2024-02-03T11:32:36.828Z,10.42
2024-02-03T11:33:36.805Z,10.43
2024-02-03T11:34:36.881Z,10.43
2024-02-03T11:35:36.702Z,10.44
2024-02-03T11:36:36.931Z,10.44
2024-02-03T11:37:36.752Z,10.44
2024-02-03T11:38:36.833Z,10.47
2024-02-03T11:39:37.181Z,10.47
2024-02-03T11:40:36.801Z,10.47
2024-02-03T11:41:36.739Z,10.46
2024-02-03T11:42:36.702Z,10.46
2024-02-03T11:43:36.630Z,10.47
2024-02-03T11:44:36.710Z,10.44
2024-02-03T11:45:36.933Z,10.46
2024-02-03T11:46:36.808Z,10.44
2024-02-03T11:47:36.638Z,10.44
2024-02-03T11:48:36.719Z,10.44
2024-02-03T11:49:36.793Z,10.43
2024-02-03T11:50:36.693Z,10.43
2024-02-03T11:51:36.589Z,10.44
2024-02-03T11:52:36.701Z,10.43
2024-02-03T11:53:36.486Z,10.43
2024-02-03T11:54:36.753Z,10.44
2024-02-03T11:55:36.514Z,10.43
2024-02-03T11:56:36.460Z,10.46
2024-02-03T11:57:36.695Z,10.44
2024-02-03T11:58:36.466Z,10.47
2024-02-03T11:59:36.423Z,10.47
2024-02-03T12:00:36.472Z,10.47
2024-02-03T12:01:36.607Z,10.47
2024-02-03T12:02:36.448Z,10.47
2024-02-03T12:03:36.478Z,10.47
2024-02-03T12:04:36.489Z,10.47
2024-02-03T12:05:36.397Z,10.47
2024-02-03T12:06:36.441Z,10.51
2024-02-03T12:07:36.397Z,10.52
2024-02-03T12:08:36.510Z,10.52
2024-02-03T12:09:36.603Z,10.55
2024-02-03T12:10:36.789Z,10.55
2024-02-03T12:11:36.588Z,10.53
2024-02-03T12:12:36.397Z,10.55
2024-02-03T12:13:36.314Z,10.56
2024-02-03T12:14:36.422Z,10.56
2024-02-03T12:15:36.322Z,10.56
2024-02-03T12:16:36.282Z,10.55
2024-02-03T12:17:36.569Z,10.56
2024-02-03T12:18:36.467Z,10.58
2024-02-03T12:19:36.385Z,10.59
2024-02-03T12:20:36.356Z,10.59
2024-02-03T12:21:36.271Z,10.62
2024-02-03T12:22:36.202Z,10.63
2024-02-03T12:23:36.358Z,10.62
2024-02-03T12:24:36.513Z,10.60
2024-02-03T12:25:36.168Z,10.62
2024-02-03T12:26:36.139Z,10.63
2024-02-03T12:27:36.442Z,10.62
2024-02-03T12:28:36.406Z,10.63
2024-02-03T12:29:36.160Z,10.65
2024-02-03T12:30:36.383Z,10.66
2024-02-03T12:31:36.162Z,10.68
2024-02-03T12:32:36.135Z,10.68
2024-02-03T12:33:36.285Z,10.65
2024-02-03T12:34:36.197Z,10.63
2024-02-03T12:35:36.221Z,10.65
2024-02-03T12:36:36.151Z,10.65
2024-02-03T12:37:36.066Z,10.65
2024-02-03T12:38:36.143Z,10.65
2024-02-03T12:39:36.308Z,10.63
2024-02-03T12:40:36.112Z,10.60
2024-02-03T12:41:36.193Z,10.60
2024-02-03T12:42:36.206Z,10.58
2024-02-03T12:43:36.010Z,10.59
2024-02-03T12:44:36.025Z,10.58
2024-02-03T12:45:38.084Z,10.59
2024-02-03T12:46:35.963Z,10.58
2024-02-03T12:47:35.998Z,10.59
2024-02-03T12:48:36.127Z,10.58
2024-02-03T12:49:36.133Z,10.59
2024-02-03T12:50:35.892Z,10.58
2024-02-03T12:51:36.049Z,10.58
2024-02-03T12:52:36.153Z,10.59
2024-02-03T12:53:35.960Z,10.59
2024-02-03T12:54:35.916Z,10.59
2024-02-03T12:55:35.964Z,10.59
2024-02-03T12:56:35.855Z,10.58
2024-02-03T12:57:37.041Z,10.59
2024-02-03T12:58:36.042Z,10.62
2024-02-03T12:59:35.853Z,10.59
2024-02-03T13:00:35.877Z,10.60
2024-02-03T13:01:35.844Z,10.62
2024-02-03T13:02:35.791Z,10.62
2024-02-03T13:03:35.905Z,10.60
2024-02-03T13:04:35.920Z,10.59
2024-02-03T13:05:35.952Z,10.60
2024-02-03T13:06:35.847Z,10.62
2024-02-03T13:07:35.818Z,10.60
2024-02-03T13:08:35.792Z,10.60
2024-02-03T13:09:36.011Z,10.62
2024-02-03T13:10:35.761Z,10.63
2024-02-03T13:11:35.740Z,10.63
2024-02-03T13:12:35.759Z,10.62
2024-02-03T13:13:35.712Z,10.62
2024-02-03T13:14:35.689Z,10.60